Time;durP1;ratioP1;P1;durP2;ratioP2;P2;SDS_P1;SDS_P2;PMS_P1;PMS_P2;Temp;Humidity;BMP_temperature;BMP_pressure;BME280_temperature;BME280_humidity;BME280_pressure;Samples;Min_cycle;Max_cycle;Signal;HPM_P1;HPM_P2
2022/11/23 00:00:19;;;;;;;;;;;;;;;;;;;;;
2022/11/23 00:12:27;;;;;;;2.72;1.60;;;;;;;;;;4932800;29;20044;-54
2022/11/23 00:15:05;;;;;;;3.33;1.40;;;;;;;;;;4954423;28;20069;-57
2022/11/23 00:17:58;;;;;;;3.42;1.25;;;;;;;;;;5008789;28;20137;-53
2022/11/23 00:20:43;;;;;;;2.88;1.63;;;;;;;;;;5010173;28;20054;-52
2022/11/23 00:23:18;;;;;;;2.30;1.35;;;;;;;;;;5010139;28;20030;-56
2022/11/23 00:28:53;;;;;;;3.72;1.23;;;;;;;;;;5010407;28;20098;-52
2022/11/23 00:40:14;;;;;;;4.15;1.52;;;;;;;;;;5000041;28;20062;-57
2022/11/23 00:42:48;;;;;;;4.03;1.73;;;;;;;;;;5010052;28;20158;-55
2022/11/23 01:00:24;;;;;;;3.67;2.00;;;;;;;;;;5055979;28;20032;-56
2022/11/23 01:03:18;;;;;;;1.67;1.08;;;;;;;;;;5071054;28;20056;-56
2022/11/23 01:06:12;;;;;;;3.78;0.82;;;;;;;;;;5070725;28;20072;-53
2022/11/23 01:08:44;;;;;;;1.50;1.10;;;;;;;;;;5070325;28;20055;-52
2022/11/23 01:11:35;;;;;;;1.80;0.90;;;;;;;;;;5020527;28;20029;-57
2022/11/23 01:14:01;;;;;;;;;;;;;;;;;;5070958;28;20367;-57
2022/11/23 01:16:28;;;;;;;1.40;0.75;;;;;;;;;;5052890;28;19916;-55
2022/11/23 01:19:47;;;;;;;3.83;1.73;;;;;;;;;;5071017;28;20025;-56
2022/11/23 01:22:25;;;;;;;3.53;1.10;;;;;;;;;;5068643;28;20028;-55
2022/11/23 01:28:54;;;;;;;2.53;1.10;;;;;;;;;;5036475;28;20037;-56
2022/11/23 01:31:54;;;;;;;4.18;1.08;;;;;;;;;;4970370;29;20049;-51
2022/11/23 01:34:38;;;;;;;8.75;1.88;;;;;;;;;;4969557;29;20106;-53
2022/11/23 01:37:08;;;;;;;2.10;0.75;;;;;;;;;;4969392;29;20035;-52
2022/11/23 01:42:44;;;;;;;3.58;1.15;;;;;;;;;;4950212;29;20035;-54
2022/11/23 01:45:39;;;;;;;3.47;0.75;;;;;;;;;;4950187;29;20051;-55
2022/11/23 01:48:38;;;;;;;2.45;1.15;;;;;;;;;;4950578;29;20043;-54
2022/11/23 01:51:29;;;;;;;8.27;2.30;;;;;;;;;;4912242;29;20056;-56
2022/11/23 01:54:31;;;;;;;1.48;0.88;;;;;;;;;;4912570;29;20111;-55
2022/11/23 01:57:13;;;;;;;1.75;0.77;;;;;;;;;;4950570;29;20035;-57
2022/11/23 01:59:58;;;;;;;;;;;;;;;;;;4918768;29;20035;-53
2022/11/23 02:03:09;;;;;;;1.60;1.05;;;;;;;;;;4993024;28;20039;-55
2022/11/23 02:05:59;;;;;;;2.72;1.30;;;;;;;;;;4930981;29;20302;-53
2022/11/23 02:11:32;;;;;;;2.00;1.08;;;;;;;;;;5058044;28;20031;-52
2022/11/23 02:20:03;;;;;;;1.13;0.77;;;;;;;;;;5056231;28;20041;-52
2022/11/23 02:22:44;;;;;;;1.80;1.25;;;;;;;;;;5068813;28;20029;-54
2022/11/23 02:25:23;;;;;;;4.38;1.13;;;;;;;;;;5067935;28;20025;-53
2022/11/23 02:28:01;;;;;;;4.50;1.42;;;;;;;;;;5051516;28;20101;-54
2022/11/23 02:31:09;;;;;;;5.90;1.77;;;;;;;;;;5068908;28;20463;-50
2022/11/23 02:33:44;;;;;;;2.30;1.50;;;;;;;;;;5069025;28;20021;-55
2022/11/23 02:36:30;;;;;;;6.50;1.25;;;;;;;;;;5068346;28;20037;-53
2022/11/23 02:39:14;;;;;;;2.15;1.23;;;;;;;;;;5068264;28;20047;-53
2022/11/23 02:41:53;;;;;;;5.90;1.50;;;;;;;;;;5068569;28;20032;-52
2022/11/23 02:44:57;;;;;;;3.30;1.33;;;;;;;;;;5050587;28;20036;-55
2022/11/23 02:47:43;;;;;;;2.88;1.20;;;;;;;;;;5017563;28;20064;-58
2022/11/23 02:59:35;;;;;;;1.40;0.82;;;;;;;;;;5063943;28;20077;-53
2022/11/23 03:02:13;;;;;;;3.57;1.77;;;;;;;;;;5068548;28;20029;-53
2022/11/23 03:04:46;;;;;;;3.13;1.05;;;;;;;;;;5069253;28;20060;-50
2022/11/23 03:07:22;;;;;;;1.60;0.90;;;;;;;;;;5069963;28;20047;-54
2022/11/23 03:10:17;;;;;;;4.82;1.90;;;;;;;;;;5068323;28;20067;-51
2022/11/23 03:12:58;;;;;;;1.70;1.23;;;;;;;;;;5066782;28;20033;-53
2022/11/23 03:15:59;;;;;;;1.13;0.53;;;;;;;;;;5068741;28;20033;-52
2022/11/23 03:18:28;;;;;;;;;;;;;;;;;;5051296;28;20033;-53
2022/11/23 03:21:32;;;;;;;2.20;1.60;;;;;;;;;;5068301;28;19934;-54
2022/11/23 03:24:11;;;;;;;3.22;1.80;;;;;;;;;;4967901;29;20044;-52
2022/11/23 03:29:47;;;;;;;2.73;1.10;;;;;;;;;;5068203;28;20489;-57
2022/11/23 03:32:20;;;;;;;7.80;1.52;;;;;;;;;;5068516;28;20044;-55
2022/11/23 03:35:07;;;;;;;1.33;0.88;;;;;;;;;;5068474;28;20427;-57
2022/11/23 03:38:11;;;;;;;1.35;0.85;;;;;;;;;;5071408;28;20085;-54
2022/11/23 03:44:00;;;;;;;4.72;1.35;;;;;;;;;;5034246;28;20041;-57
2022/11/23 03:49:30;;;;;;;2.43;1.00;;;;;;;;;;5058148;28;20123;-57
2022/11/23 03:52:07;;;;;;;2.05;1.20;;;;;;;;;;5030117;28;20060;-53
2022/11/23 03:57:52;;;;;;;;;;;;;;;;;;;;;
2022/11/23 04:02:59;;;;;;;2.30;0.85;;;;;;;;;;5029918;28;20032;-54
2022/11/23 04:08:40;;;;;;;2.60;1.50;;;;;;;;;;5045035;28;20095;-56
2022/11/23 04:11:28;;;;;;;1.27;0.70;;;;;;;;;;5032859;28;20030;-54
2022/11/23 04:14:34;;;;;;;1.42;1.00;;;;;;;;;;5049860;28;20026;-55
2022/11/23 04:17:39;;;;;;;2.63;1.05;;;;;;;;;;5049353;28;20048;-56
2022/11/23 04:20:02;;;;;;;2.25;0.98;;;;;;;;;;5047584;28;20063;-56
2022/11/23 04:22:50;;;;;;;4.30;1.20;;;;;;;;;;5056201;28;20033;-54
2022/11/23 04:25:19;;;;;;;1.55;1.08;;;;;;;;;;5071264;28;20410;-56
2022/11/23 04:27:54;;;;;;;1.90;0.95;;;;;;;;;;5070880;28;20100;-56
2022/11/23 04:30:41;;;;;;;6.43;0.93;;;;;;;;;;5070471;28;20037;-58
2022/11/23 04:36:39;;;;;;;;;;;;;;;;;;;;;
2022/11/23 04:39:32;;;;;;;4.25;0.50;;;;;;;;;;5056947;28;20427;-57
2022/11/23 04:42:21;;;;;;;4.15;0.93;;;;;;;;;;5038819;28;20513;-57
2022/11/23 04:47:56;;;;;;;1.88;1.15;;;;;;;;;;5034509;28;20037;-56
2022/11/23 04:50:41;;;;;;;;;;;;;;;;;;;;;
2022/11/23 04:53:25;;;;;;;5.25;1.98;;;;;;;;;;5027881;28;20041;-57
2022/11/23 04:56:00;;;;;;;3.50;0.90;;;;;;;;;;5040226;28;20021;-54
2022/11/23 05:04:34;;;;;;;9.95;5.45;;;;;;;;;;5034715;28;20076;-58
2022/11/23 05:07:24;;;;;;;7.05;3.33;;;;;;;;;;5036235;28;20459;-57
2022/11/23 05:09:59;;;;;;;2.63;1.48;;;;;;;;;;5001523;28;20093;-57
2022/11/23 05:12:40;;;;;;;1.85;1.08;;;;;;;;;;5016122;28;20053;-57
2022/11/23 05:15:18;;;;;;;2.58;1.65;;;;;;;;;;5034796;28;20025;-55
2022/11/23 05:17:45;;;;;;;3.53;1.48;;;;;;;;;;5035282;28;20041;-52
2022/11/23 05:20:29;;;;;;;0.80;0.50;;;;;;;;;;5035054;28;20032;-54
2022/11/23 05:23:35;;;;;;;;;;;;;;;;;;;;;
2022/11/23 05:26:43;;;;;;;;;;;;;;;;;;;;;
2022/11/23 05:29:42;;;;;;;2.47;1.27;;;;;;;;;;5034475;28;20386;-57
2022/11/23 05:32:28;;;;;;;1.95;0.93;;;;;;;;;;5047165;28;20036;-54
2022/11/23 05:35:05;;;;;;;1.43;1.07;;;;;;;;;;5069861;28;20406;-56
2022/11/23 05:37:33;;;;;;;3.17;1.30;;;;;;;;;;5028202;28;20030;-58
2022/11/23 05:43:45;;;;;;;3.63;1.30;;;;;;;;;;5006696;28;20026;-56
2022/11/23 05:46:28;;;;;;;1.40;0.75;;;;;;;;;;5025762;28;20030;-56
2022/11/23 05:52:02;;;;;;;3.42;1.35;;;;;;;;;;4961056;28;20088;-57
2022/11/23 05:58:02;;;;;;;5.43;1.80;;;;;;;;;;4961892;29;20028;-57
2022/11/23 06:00:54;;;;;;;1.27;0.65;;;;;;;;;;4968608;29;20035;-57
2022/11/23 06:03:21;;;;;;;2.05;1.10;;;;;;;;;;4948952;29;20402;-54
2022/11/23 06:06:10;;;;;;;4.55;1.15;;;;;;;;;;4949524;29;20035;-52
2022/11/23 06:08:40;;;;;;;1.85;0.98;;;;;;;;;;4970488;28;20070;-56
2022/11/23 06:11:15;;;;;;;3.10;1.05;;;;;;;;;;4986349;28;20122;-55
2022/11/23 06:14:16;;;;;;;;;;;;;;;;;;;;;
2022/11/23 06:16:58;;;;;;;2.13;1.13;;;;;;;;;;4988568;28;20066;-58
2022/11/23 06:19:58;;;;;;;2.00;0.88;;;;;;;;;;4994060;28;20031;-56
2022/11/23 06:25:26;;;;;;;2.33;1.13;;;;;;;;;;4978892;28;20046;-55
2022/11/23 06:31:29;;;;;;;6.97;2.15;;;;;;;;;;4982444;28;20047;-57
2022/11/23 06:34:10;;;;;;;2.35;1.35;;;;;;;;;;5000393;28;20153;-56
2022/11/23 06:37:25;;;;;;;7.70;1.40;;;;;;;;;;5026091;28;20093;-56
2022/11/23 06:40:08;;;;;;;2.70;0.98;;;;;;;;;;4987171;28;20027;-55
2022/11/23 06:45:52;;;;;;;1.15;0.85;;;;;;;;;;4977853;28;20034;-58
2022/11/23 06:48:42;;;;;;;4.00;1.58;;;;;;;;;;5027196;28;20033;-57
2022/11/23 06:51:21;;;;;;;4.32;1.45;;;;;;;;;;5026687;28;20042;-57
2022/11/23 06:54:17;;;;;;;2.28;1.33;;;;;;;;;;5026447;28;20038;-57
2022/11/23 06:56:49;;;;;;;5.32;2.28;;;;;;;;;;5022623;28;20034;-57
2022/11/23 07:05:02;;;;;;;4.73;2.03;;;;;;;;;;5022672;28;20086;-57
2022/11/23 07:10:59;;;;;;;2.07;1.57;;;;;;;;;;5007915;28;20113;-55
2022/11/23 07:13:43;;;;;;;6.87;2.57;;;;;;;;;;5002489;28;20098;-55
2022/11/23 07:16:40;;;;;;;6.78;2.05;;;;;;;;;;5002265;28;20077;-56
2022/11/23 07:19:27;;;;;;;3.92;2.67;;;;;;;;;;5002358;28;20046;-56
2022/11/23 07:25:03;;;;;;;4.88;1.55;;;;;;;;;;5063958;28;20078;-57
2022/11/23 07:27:48;;;;;;;;;;;;;;;;;;;;;
2022/11/23 07:30:45;;;;;;;;;;;;;;;;;;;;;
2022/11/23 07:33:37;;;;;;;2.20;1.57;;;;;;;;;;5083109;28;20080;-57
2022/11/23 07:36:31;;;;;;;2.70;1.38;;;;;;;;;;5063154;28;20090;-54
2022/11/23 07:39:16;;;;;;;7.40;1.73;;;;;;;;;;5083300;28;20043;-58
2022/11/23 07:42:26;;;;;;;7.55;2.22;;;;;;;;;;5082184;28;20059;-58
2022/11/23 07:45:03;;;;;;;5.75;3.40;;;;;;;;;;4982679;28;20031;-58
2022/11/23 07:47:36;;;;;;;4.37;1.93;;;;;;;;;;5008856;28;20044;-57
2022/11/23 07:50:10;;;;;;;10.43;2.78;;;;;;;;;;5082684;28;20031;-56
2022/11/23 07:55:44;;;;;;;5.45;2.00;;;;;;;;;;5084805;28;20094;-55
2022/11/23 07:58:40;;;;;;;3.22;1.88;;;;;;;;;;5059651;28;20528;-55
2022/11/23 08:01:16;;;;;;;5.67;1.87;;;;;;;;;;5066429;28;20060;-55
2022/11/23 08:03:45;;;;;;;5.10;2.43;;;;;;;;;;5055398;28;20515;-57
2022/11/23 08:06:24;;;;;;;6.72;1.98;;;;;;;;;;5074394;28;20028;-57
2022/11/23 08:12:44;;;;;;;3.58;2.03;;;;;;;;;;5053574;28;20075;-55
2022/11/23 08:18:27;;;;;;;6.18;1.98;;;;;;;;;;5053486;28;20418;-56
2022/11/23 08:21:30;;;;;;;3.75;2.15;;;;;;;;;;5053324;28;20052;-57
2022/11/23 08:24:05;;;;;;;5.65;2.33;;;;;;;;;;5055463;28;20025;-54
2022/11/23 08:30:15;;;;;;;2.30;1.50;;;;;;;;;;5046516;28;20060;-53
2022/11/23 08:33:07;;;;;;;2.95;1.20;;;;;;;;;;5039082;28;20059;-55
2022/11/23 08:36:27;;;;;;;;;;;;;;;;;;;;;
2022/11/23 08:39:42;;;;;;;6.93;2.33;;;;;;;;;;5056678;28;20047;-51
2022/11/23 08:42:23;;;;;;;2.78;1.52;;;;;;;;;;4955902;28;20512;-53
2022/11/23 08:45:16;;;;;;;;;;;;;;;;;;;;;
2022/11/23 08:48:06;;;;;;;;;;;;;;;;;;;;;
2022/11/23 08:50:46;;;;;;;3.22;1.25;;;;;;;;;;4956280;29;20023;-56
2022/11/23 08:56:09;;;;;;;1.95;1.20;;;;;;;;;;5057041;28;20036;-54
2022/11/23 08:58:38;;;;;;;6.53;1.67;;;;;;;;;;5057120;28;20388;-57
2022/11/23 09:01:33;;;;;;;5.55;2.25;;;;;;;;;;5056568;28;20455;-55
2022/11/23 09:04:03;;;;;;;5.78;1.38;;;;;;;;;;4939423;29;20067;-57
2022/11/23 09:10:06;;;;;;;;;;;;;;;;;;;;;
2022/11/23 09:12:48;;;;;;;3.72;1.20;;;;;;;;;;5076885;28;20457;-56
2022/11/23 09:15:37;;;;;;;8.23;1.70;;;;;;;;;;5056869;28;20532;-56
2022/11/23 09:18:35;;;;;;;6.13;2.88;;;;;;;;;;5076710;28;20033;-57
2022/11/23 09:24:12;;;;;;;7.30;2.00;;;;;;;;;;5056524;28;20028;-55
2022/11/23 09:27:03;;;;;;;2.63;1.75;;;;;;;;;;5076595;28;20042;-55
2022/11/23 09:29:59;;;;;;;2.22;1.35;;;;;;;;;;5034474;28;20029;-55
2022/11/23 09:32:47;;;;;;;;;;;;;;;;;;;;;
2022/11/23 09:38:45;;;;;;;6.00;1.95;;;;;;;;;;5033938;28;20063;-54
2022/11/23 09:45:21;;;;;;;3.28;1.83;;;;;;;;;;4950954;29;20532;-55
2022/11/23 09:51:29;;;;;;;5.38;1.55;;;;;;;;;;5005517;28;20038;-56
2022/11/23 09:57:07;;;;;;;7.45;1.88;;;;;;;;;;5005254;28;20073;-55
2022/11/23 10:05:26;;;;;;;2.45;1.67;;;;;;;;;;5033804;28;20036;-56
2022/11/23 10:08:20;;;;;;;1.75;1.25;;;;;;;;;;5030053;28;20045;-56
2022/11/23 10:14:30;;;;;;;3.85;1.70;;;;;;;;;;5087263;28;20071;-56
2022/11/23 10:17:17;;;;;;;3.78;1.75;;;;;;;;;;5084917;28;20346;-55
2022/11/23 10:20:05;;;;;;;2.20;1.33;;;;;;;;;;5087530;28;20024;-56
2022/11/23 10:25:48;;;;;;;7.15;1.75;;;;;;;;;;5054218;28;20036;-54
2022/11/23 10:28:38;;;;;;;4.18;1.70;;;;;;;;;;5069237;28;20037;-54
2022/11/23 10:31:28;;;;;;;11.25;2.65;;;;;;;;;;5073580;28;20092;-55
2022/11/23 10:34:28;;;;;;;;;;;;;;;;;;;;;
2022/11/23 10:43:47;;;;;;;2.70;1.60;;;;;;;;;;5074527;28;20101;-55
2022/11/23 10:46:36;;;;;;;5.10;2.05;;;;;;;;;;5072271;28;20035;-54
2022/11/23 10:49:21;;;;;;;;;;;;;;;;;;;;;
2022/11/23 10:52:07;;;;;;;2.13;1.38;;;;;;;;;;5074969;28;20249;-54
2022/11/23 10:54:47;;;;;;;3.85;1.70;;;;;;;;;;5053639;28;20032;-54
2022/11/23 11:00:34;;;;;;;;;;;;;;;;;;;;;
2022/11/23 11:03:29;;;;;;;1.90;1.30;;;;;;;;;;5008925;28;20041;-55
2022/11/23 11:06:32;;;;;;;3.63;1.50;;;;;;;;;;5072062;28;20504;-58
2022/11/23 11:09:08;;;;;;;10.07;2.38;;;;;;;;;;5055749;28;20433;-56
2022/11/23 11:15:17;;;;;;;5.93;2.88;;;;;;;;;;5054944;28;20106;-57
2022/11/23 11:18:29;;;;;;;2.90;1.83;;;;;;;;;;5000206;28;20048;-56
2022/11/23 11:21:11;;;;;;;2.53;1.17;;;;;;;;;;5031923;28;20544;-57
2022/11/23 11:27:36;;;;;;;;;;;;;;;;;;;;;
2022/11/23 11:30:39;;;;;;;;;;;;;;;;;;;;;
2022/11/23 11:36:17;;;;;;;2.97;1.50;;;;;;;;;;5023505;28;20087;-57
2022/11/23 11:38:59;;;;;;;5.03;2.05;;;;;;;;;;5028918;28;20037;-58
2022/11/23 11:47:33;;;;;;;3.85;1.70;;;;;;;;;;5053743;28;20547;-56
2022/11/23 11:50:27;;;;;;;6.57;3.00;;;;;;;;;;5053688;28;20374;-57
2022/11/23 11:53:16;;;;;;;1.95;1.23;;;;;;;;;;5002206;28;20036;-57
2022/11/23 11:56:12;;;;;;;2.33;1.45;;;;;;;;;;5053542;28;20021;-58
2022/11/23 11:59:09;;;;;;;1.70;1.02;;;;;;;;;;5038139;28;20071;-57
2022/11/23 12:04:57;;;;;;;2.40;1.50;;;;;;;;;;5057849;28;20378;-58
2022/11/23 12:07:47;;;;;;;1.73;0.80;;;;;;;;;;5039024;28;20074;-56
2022/11/23 12:10:35;;;;;;;2.65;1.52;;;;;;;;;;5057887;28;20029;-56
2022/11/23 12:16:14;;;;;;;2.05;0.82;;;;;;;;;;5077109;28;20043;-56
2022/11/23 12:22:15;;;;;;;1.05;0.63;;;;;;;;;;5034397;28;20060;-56
2022/11/23 12:25:14;;;;;;;3.55;1.30;;;;;;;;;;5035579;28;20517;-56
2022/11/23 12:28:10;;;;;;;3.85;0.73;;;;;;;;;;5035459;28;20545;-55
2022/11/23 12:37:04;;;;;;;1.58;0.65;;;;;;;;;;5035019;28;20095;-58
2022/11/23 12:39:53;;;;;;;6.07;0.82;;;;;;;;;;5018240;28;20115;-57
2022/11/23 12:42:30;;;;;;;1.00;0.68;;;;;;;;;;5018667;28;20029;-56
2022/11/23 12:45:47;;;;;;;;;;;;;;;;;;;;;
2022/11/23 12:48:34;;;;;;;1.33;0.60;;;;;;;;;;5077187;28;20377;-56
2022/11/23 12:51:18;;;;;;;2.47;1.13;;;;;;;;;;5077134;28;20024;-56
2022/11/23 12:53:53;;;;;;;1.48;0.95;;;;;;;;;;5073889;28;20484;-59
2022/11/23 12:56:37;;;;;;;4.40;0.88;;;;;;;;;;5058272;28;20028;-59
2022/11/23 12:59:41;;;;;;;5.95;0.80;;;;;;;;;;5077223;28;20052;-58
2022/11/23 13:05:46;;;;;;;1.40;0.70;;;;;;;;;;5070739;28;20099;-58
2022/11/23 13:09:16;;;;;;;1.60;0.90;;;;;;;;;;5077060;28;20473;-56
2022/11/23 13:11:39;;;;;;;1.13;0.50;;;;;;;;;;5066229;28;20502;-56
2022/11/23 13:14:53;;;;;;;;;;;;;;;;;;;;;
2022/11/23 13:17:37;;;;;;;1.30;0.52;;;;;;;;;;4966155;28;20045;-58
2022/11/23 13:20:41;;;;;;;;;;;;;;;;;;;;;
2022/11/23 13:23:13;;;;;;;1.60;0.75;;;;;;;;;;5076934;28;20423;-58
2022/11/23 13:25:58;;;;;;;5.40;1.67;;;;;;;;;;5063239;28;20085;-58
2022/11/23 13:32:15;;;;;;;1.45;0.65;;;;;;;;;;5040780;28;20059;-56
2022/11/23 13:34:54;;;;;;;1.55;0.80;;;;;;;;;;5070856;28;20124;-57
2022/11/23 13:37:48;;;;;;;2.10;0.80;;;;;;;;;;5076764;28;20053;-57
2022/11/23 13:40:38;;;;;;;;;;;;;;;;;;;;;
2022/11/23 13:46:36;;;;;;;1.00;0.90;;;;;;;;;;5075514;28;20089;-58
2022/11/23 13:49:28;;;;;;;0.88;0.30;;;;;;;;;;5077328;28;20462;-55
2022/11/23 13:52:24;;;;;;;0.77;0.32;;;;;;;;;;5075474;28;20394;-58
2022/11/23 13:55:40;;;;;;;;;;;;;;;;;;;;;
2022/11/23 13:58:34;;;;;;;1.02;0.60;;;;;;;;;;5027297;28;20092;-56
2022/11/23 14:01:16;;;;;;;2.15;0.57;;;;;;;;;;5061773;28;20519;-58
2022/11/23 14:06:57;;;;;;;2.75;0.63;;;;;;;;;;5072030;28;20131;-57
2022/11/23 14:09:47;;;;;;;1.58;0.68;;;;;;;;;;5013369;28;20476;-58
2022/11/23 14:12:38;;;;;;;1.50;0.80;;;;;;;;;;5012026;28;20045;-56
2022/11/23 14:15:04;;;;;;;;;;;;;;;;;;5013390;28;20096;-57
2022/11/23 14:17:43;;;;;;;1.75;0.45;;;;;;;;;;5013090;28;20007;-57
2022/11/23 14:20:35;;;;;;;;;;;;;;;;;;;;;
2022/11/23 14:26:20;;;;;;;3.30;0.98;;;;;;;;;;5012836;28;20503;-58
2022/11/23 14:35:38;;;;;;;;;;;;;;;;;;;;;
2022/11/23 14:41:28;;;;;;;0.88;0.40;;;;;;;;;;5060310;28;20039;-58
2022/11/23 14:44:38;;;;;;;1.83;0.90;;;;;;;;;;5074317;28;20027;-58
2022/11/23 14:47:27;;;;;;;2.05;0.98;;;;;;;;;;5071490;28;20041;-57
2022/11/23 14:50:24;;;;;;;0.73;0.35;;;;;;;;;;5073498;28;20032;-57
2022/11/23 14:56:40;;;;;;;;;;;;;;;;;;;;;
2022/11/23 14:59:28;;;;;;;5.40;1.02;;;;;;;;;;5032268;28;20040;-58
2022/11/23 15:05:38;;;;;;;1.25;0.40;;;;;;;;;;5019129;28;20030;-58
2022/11/23 15:08:34;;;;;;;1.83;0.85;;;;;;;;;;5074329;28;20032;-56
2022/11/23 15:11:38;;;;;;;2.92;1.35;;;;;;;;;;5056155;28;20483;-56
2022/11/23 15:27:07;;;;;;;0.70;0.40;;;;;;;;;;4974976;28;20527;-57
2022/11/23 15:33:10;;;;;;;;;;;;;;;;;;;;;
2022/11/23 15:36:02;;;;;;;1.48;0.77;;;;;;;;;;4995279;28;20030;-58
2022/11/23 15:44:58;;;;;;;2.08;0.88;;;;;;;;;;4996242;28;20034;-58
2022/11/23 15:47:39;;;;;;;2.30;1.42;;;;;;;;;;4996319;28;20038;-59
2022/11/23 15:50:12;;;;;;;2.55;1.45;;;;;;;;;;4999511;28;20588;-59
2022/11/23 15:53:10;;;;;;;2.17;1.27;;;;;;;;;;5078944;28;20024;-57
2022/11/23 15:55:52;;;;;;;2.17;1.20;;;;;;;;;;5058501;28;20048;-58
2022/11/23 15:59:03;;;;;;;;;;;;;;;;;;;;;
2022/11/23 16:01:40;;;;;;;5.90;1.38;;;;;;;;;;5056380;28;20089;-55
2022/11/23 16:04:29;;;;;;;1.67;0.88;;;;;;;;;;5007008;28;20033;-58
2022/11/23 16:13:53;;;;;;;2.03;1.05;;;;;;;;;;5074223;28;20493;-58
2022/11/23 16:16:55;;;;;;;2.17;1.38;;;;;;;;;;4976306;28;20034;-58
2022/11/23 16:19:47;;;;;;;2.17;1.13;;;;;;;;;;4957752;28;20449;-58
2022/11/23 16:22:34;;;;;;;3.33;1.33;;;;;;;;;;4981827;28;20045;-56
2022/11/23 16:25:32;;;;;;;4.53;1.33;;;;;;;;;;5029869;28;20471;-57
2022/11/23 16:28:58;;;;;;;2.85;1.33;;;;;;;;;;5076709;28;20119;-57
2022/11/23 16:34:39;;;;;;;3.08;0.82;;;;;;;;;;5039585;28;20081;-55
2022/11/23 16:46:35;;;;;;;7.00;1.80;;;;;;;;;;5077037;28;20103;-57
2022/11/23 16:55:49;;;;;;;1.85;1.30;;;;;;;;;;5075776;28;20478;-58
2022/11/23 17:01:28;;;;;;;4.78;1.58;;;;;;;;;;5076517;28;20131;-58
2022/11/23 17:07:21;;;;;;;1.52;0.98;;;;;;;;;;5076278;28;20445;-57
2022/11/23 17:10:10;;;;;;;2.05;1.48;;;;;;;;;;5076602;28;20029;-56
2022/11/23 17:12:52;;;;;;;1.40;0.98;;;;;;;;;;5076908;28;20055;-56
2022/11/23 17:15:41;;;;;;;2.88;1.27;;;;;;;;;;5075786;28;20056;-56
2022/11/23 17:18:34;;;;;;;1.80;0.73;;;;;;;;;;5061852;28;20351;-56
2022/11/23 17:21:12;;;;;;;3.45;1.05;;;;;;;;;;5076445;28;20026;-58
2022/11/23 17:23:43;;;;;;;1.98;0.93;;;;;;;;;;5064432;28;20032;-59
2022/11/23 17:26:27;;;;;;;1.35;0.73;;;;;;;;;;5053419;28;20021;-59
2022/11/23 17:35:12;;;;;;;1.10;0.60;;;;;;;;;;5068798;28;20029;-60
2022/11/23 17:37:59;;;;;;;5.30;2.53;;;;;;;;;;5076465;28;20085;-60
2022/11/23 17:40:46;;;;;;;2.15;1.05;;;;;;;;;;5076356;28;20027;-58
2022/11/23 17:43:58;;;;;;;;;;;;;;;;;;;;;
2022/11/23 17:46:46;;;;;;;2.28;0.75;;;;;;;;;;5076172;28;20020;-59
2022/11/23 17:55:53;;;;;;;;;;;;;;;;;;;;;
2022/11/23 17:59:38;;;;;;;;;;;;;;;;;;;;;
2022/11/23 18:01:49;;;;;;;1.83;1.05;;;;;;;;;;5018335;28;20120;-59
2022/11/23 18:04:30;;;;;;;3.47;1.08;;;;;;;;;;5016556;28;20040;-60
2022/11/23 18:07:17;;;;;;;2.38;0.93;;;;;;;;;;5016864;28;20483;-59
2022/11/23 18:09:56;;;;;;;3.58;1.50;;;;;;;;;;5016572;28;20026;-60
2022/11/23 18:16:54;;;;;;;;;;;;;;;;;;;;;
2022/11/23 18:19:28;;;;;;;2.33;1.30;;;;;;;;;;4908792;28;20503;-60
2022/11/23 18:22:26;;;;;;;1.67;0.90;;;;;;;;;;5051914;28;20071;-59
2022/11/23 18:25:18;;;;;;;1.92;1.05;;;;;;;;;;5053619;28;20124;-59
2022/11/23 18:28:21;;;;;;;;;;;;;;;;;;;;;
2022/11/23 18:30:50;;;;;;;1.88;1.10;;;;;;;;;;5045026;28;20421;-59
2022/11/23 18:33:26;;;;;;;2.70;1.15;;;;;;;;;;5036456;28;20033;-59
2022/11/23 18:39:09;;;;;;;;;;;;;;;;;;4955524;29;20055;-60
2022/11/23 18:41:57;;;;;;;2.63;1.42;;;;;;;;;;4970774;28;20007;-60
2022/11/23 18:44:52;;;;;;;3.13;1.50;;;;;;;;;;5075448;28;20082;-60
2022/11/23 18:47:39;;;;;;;2.20;1.35;;;;;;;;;;5056625;28;20542;-59
2022/11/23 18:50:23;;;;;;;3.55;2.67;;;;;;;;;;5070112;28;20042;-58
2022/11/23 18:53:11;;;;;;;4.15;1.92;;;;;;;;;;5074913;28;20033;-61
2022/11/23 18:55:59;;;;;;;5.60;2.10;;;;;;;;;;5072779;28;20086;-61
2022/11/23 19:01:51;;;;;;;3.92;2.17;;;;;;;;;;5046524;28;20051;-59
2022/11/23 19:09:00;;;;;;;;;;;;;;;;;;;;;
2022/11/23 19:11:17;;;;;;;;;;;;;;;;;;;;;
2022/11/23 19:14:07;;;;;;;6.55;3.25;;;;;;;;;;5022499;28;20033;-59
2022/11/23 19:19:59;;;;;;;5.22;2.40;;;;;;;;;;5030992;28;20033;-59
2022/11/23 19:26:05;;;;;;;8.88;4.15;;;;;;;;;;5050981;28;20130;-59
2022/11/23 19:29:03;;;;;;;5.78;2.55;;;;;;;;;;5040786;28;20534;-59
2022/11/23 19:31:45;;;;;;;5.15;2.15;;;;;;;;;;4972607;28;20031;-60
2022/11/23 19:34:42;;;;;;;;;;;;;;;;;;;;;
2022/11/23 19:47:50;;;;;;;3.25;1.67;;;;;;;;;;4953792;29;20038;-59
2022/11/23 19:50:27;;;;;;;2.70;1.80;;;;;;;;;;4992749;28;20084;-59
2022/11/23 19:53:27;;;;;;;4.65;2.35;;;;;;;;;;4991823;28;20551;-59
2022/11/23 20:11:28;;;;;;;5.47;2.17;;;;;;;;;;4951004;29;20035;-60
2022/11/23 20:17:48;;;;;;;3.15;2.25;;;;;;;;;;5019805;28;20097;-60
2022/11/23 20:20:26;;;;;;;2.45;1.63;;;;;;;;;;4956986;28;20130;-60
2022/11/23 20:29:19;;;;;;;4.47;2.30;;;;;;;;;;5015276;28;20131;-59
2022/11/23 20:32:02;;;;;;;4.18;2.70;;;;;;;;;;5033722;28;20471;-60
2022/11/23 20:34:47;;;;;;;3.65;2.42;;;;;;;;;;5058230;28;20443;-60
2022/11/23 20:43:35;;;;;;;4.10;2.40;;;;;;;;;;5049794;28;20074;-59
2022/11/23 20:46:08;;;;;;;4.70;1.65;;;;;;;;;;5018913;28;20486;-59
2022/11/23 20:58:36;;;;;;;;;;;;;;;;;;;;;
2022/11/23 21:01:29;;;;;;;3.35;1.67;;;;;;;;;;5057076;28;20438;-59
2022/11/23 21:03:59;;;;;;;3.70;1.23;;;;;;;;;;5044583;28;20037;-59
2022/11/23 21:06:34;;;;;;;1.48;0.90;;;;;;;;;;5037118;28;20036;-59
2022/11/23 21:09:48;;;;;;;6.38;1.63;;;;;;;;;;5038842;28;20613;-59
2022/11/23 21:15:27;;;;;;;5.00;0.95;;;;;;;;;;5062008;28;20052;-59
2022/11/23 21:21:33;;;;;;;2.40;0.80;;;;;;;;;;5052516;28;20028;-60
2022/11/23 21:27:12;;;;;;;2.22;0.95;;;;;;;;;;5054039;28;20036;-60
2022/11/23 21:29:49;;;;;;;1.95;1.40;;;;;;;;;;5075295;28;20029;-60
2022/11/23 21:32:29;;;;;;;3.08;0.77;;;;;;;;;;5054244;28;20040;-60
2022/11/23 21:35:15;;;;;;;6.20;2.53;;;;;;;;;;5071288;28;20020;-60
2022/11/23 21:38:09;;;;;;;7.57;2.40;;;;;;;;;;5076733;28;20512;-59
2022/11/23 21:40:41;;;;;;;5.65;1.73;;;;;;;;;;5076281;28;20020;-60
2022/11/23 21:43:52;;;;;;;;;;;;;;;;;;;;;
2022/11/23 21:46:28;;;;;;;4.03;1.33;;;;;;;;;;5071290;28;20055;-58
2022/11/23 21:49:21;;;;;;;6.40;1.23;;;;;;;;;;5056716;28;20379;-60
2022/11/23 21:51:49;;;;;;;3.15;1.23;;;;;;;;;;5074385;28;20096;-59
2022/11/23 21:55:01;;;;;;;2.28;1.38;;;;;;;;;;5076041;28;20024;-58
2022/11/23 21:57:33;;;;;;;4.68;1.23;;;;;;;;;;5075991;28;20051;-60
2022/11/23 22:06:01;;;;;;;5.97;1.55;;;;;;;;;;5073531;28;20400;-58
2022/11/23 22:12:11;;;;;;;2.55;1.23;;;;;;;;;;4982418;28;20081;-59
2022/11/23 22:21:01;;;;;;;1.63;0.70;;;;;;;;;;5069019;28;20060;-59
2022/11/23 22:23:56;;;;;;;2.85;0.90;;;;;;;;;;4969045;29;20023;-59
2022/11/23 22:26:37;;;;;;;3.97;1.20;;;;;;;;;;4969337;29;20035;-59
2022/11/23 22:29:14;;;;;;;5.30;1.67;;;;;;;;;;4969152;29;20047;-59
2022/11/23 22:31:46;;;;;;;4.65;1.52;;;;;;;;;;4969030;29;20063;-60
2022/11/23 22:34:33;;;;;;;4.00;1.52;;;;;;;;;;4968885;29;20043;-60
2022/11/23 22:39:54;;;;;;;3.55;1.55;;;;;;;;;;4968001;29;20140;-60
2022/11/23 22:42:40;;;;;;;2.42;1.13;;;;;;;;;;4967603;28;20035;-59
2022/11/23 22:45:19;;;;;;;;;;;;;;;;;;;;;
2022/11/23 22:48:04;;;;;;;4.70;1.20;;;;;;;;;;4946365;29;20490;-60
2022/11/23 22:50:52;;;;;;;3.17;1.25;;;;;;;;;;4951797;29;20063;-60
2022/11/23 22:56:49;;;;;;;6.53;1.20;;;;;;;;;;5068238;28;20460;-59
2022/11/23 22:59:34;;;;;;;3.78;1.38;;;;;;;;;;5068393;28;20406;-59
2022/11/23 23:02:07;;;;;;;5.15;1.45;;;;;;;;;;5067996;28;20025;-59
2022/11/23 23:08:29;;;;;;;4.00;1.50;;;;;;;;;;4949121;29;20075;-59
2022/11/23 23:11:35;;;;;;;4.13;1.27;;;;;;;;;;4978822;28;20426;-59
2022/11/23 23:14:23;;;;;;;2.95;1.13;;;;;;;;;;5020869;28;20035;-59
2022/11/23 23:16:54;;;;;;;2.95;1.10;;;;;;;;;;5083235;28;20072;-60
2022/11/23 23:19:42;;;;;;;3.75;2.45;;;;;;;;;;5087632;28;20037;-59
2022/11/23 23:22:12;;;;;;;2.53;1.33;;;;;;;;;;5087894;28;20025;-59
2022/11/23 23:25:11;;;;;;;1.23;0.85;;;;;;;;;;5088241;28;20020;-59
2022/11/23 23:27:43;;;;;;;5.18;1.55;;;;;;;;;;5087635;28;20035;-59
2022/11/23 23:30:17;;;;;;;2.80;1.05;;;;;;;;;;5087669;28;20495;-60
2022/11/23 23:32:59;;;;;;;;;;;;;;;;;;;;;
2022/11/23 23:35:44;;;;;;;3.20;1.13;;;;;;;;;;5081260;28;20454;-60
2022/11/23 23:38:51;;;;;;;4.32;1.08;;;;;;;;;;5088717;28;20029;-59
2022/11/23 23:44:22;;;;;;;;;;;;;;;;;;5026794;28;20038;-59
2022/11/23 23:47:15;;;;;;;2.78;1.63;;;;;;;;;;5035204;28;20312;-59
2022/11/23 23:49:50;;;;;;;2.20;0.80;;;;;;;;;;5078494;28;20033;-59
2022/11/23 23:52:49;;;;;;;;;;;;;;;;;;;;;
